sensor_id;sensor_type;location;lat;lon;timestamp;pressure;altitude;pressure_sealevel;temperature;humidity
14269;BME280;7218;51.480;7.006;2023-07-09T00:01:39;100253.81;;;21.57;62.07
14269;BME280;7218;51.480;7.006;2023-07-09T00:04:08;100251.91;;;21.59;61.27
14269;BME280;7218;51.480;7.006;2023-07-09T00:06:36;100252.09;;;21.56;63.29
14269;BME280;7218;51.480;7.006;2023-07-09T00:09:03;100250.78;;;21.48;63.54
14269;BME280;7218;51.480;7.006;2023-07-09T00:11:30;100253.66;;;21.45;61.30
14269;BME280;7218;51.480;7.006;2023-07-09T00:13:56;100246.78;;;21.56;59.83
14269;BME280;7218;51.480;7.006;2023-07-09T00:16:24;100254.78;;;21.68;61.28
14269;BME280;7218;51.480;7.006;2023-07-09T00:18:51;100251.91;;;21.59;62.22
14269;BME280;7218;51.480;7.006;2023-07-09T00:21:20;100243.28;;;21.55;61.90
14269;BME280;7218;51.480;7.006;2023-07-09T00:23:47;100242.81;;;21.48;59.62
14269;BME280;7218;51.480;7.006;2023-07-09T00:26:15;100250.41;;;21.55;61.59
14269;BME280;7218;51.480;7.006;2023-07-09T00:28:42;100245.09;;;21.55;62.49
14269;BME280;7218;51.480;7.006;2023-07-09T00:31:12;100250.00;;;21.61;62.71
14269;BME280;7218;51.480;7.006;2023-07-09T00:33:40;100242.66;;;21.52;63.56
14269;BME280;7218;51.480;7.006;2023-07-09T00:36:14;100246.53;;;21.46;65.42
14269;BME280;7218;51.480;7.006;2023-07-09T00:38:41;100244.75;;;21.46;65.05
14269;BME280;7218;51.480;7.006;2023-07-09T00:41:17;100239.63;;;21.43;65.63
14269;BME280;7218;51.480;7.006;2023-07-09T00:43:45;100241.94;;;21.35;66.38
14269;BME280;7218;51.480;7.006;2023-07-09T00:47:06;100250.63;;;21.37;66.40
14269;BME280;7218;51.480;7.006;2023-07-09T00:49:04;100243.63;;;21.22;68.02
14269;BME280;7218;51.480;7.006;2023-07-09T00:51:36;100238.34;;;21.22;68.19
14269;BME280;7218;51.480;7.006;2023-07-09T00:54:07;100235.97;;;21.18;68.84
14269;BME280;7218;51.480;7.006;2023-07-09T00:56:39;100231.88;;;21.12;69.16
14269;BME280;7218;51.480;7.006;2023-07-09T00:59:10;100235.59;;;21.10;69.56
14269;BME280;7218;51.480;7.006;2023-07-09T01:01:39;100241.94;;;21.07;70.13
14269;BME280;7218;51.480;7.006;2023-07-09T01:04:07;100239.09;;;21.10;69.03
14269;BME280;7218;51.480;7.006;2023-07-09T01:06:41;100235.69;;;21.08;69.47
14269;BME280;7218;51.480;7.006;2023-07-09T01:09:09;100241.94;;;21.07;69.91
14269;BME280;7218;51.480;7.006;2023-07-09T01:11:37;100244.22;;;20.99;71.05
14269;BME280;7218;51.480;7.006;2023-07-09T01:14:07;100243.50;;;20.97;70.73
14269;BME280;7218;51.480;7.006;2023-07-09T01:16:37;100239.41;;;20.91;70.95
14269;BME280;7218;51.480;7.006;2023-07-09T01:19:04;100238.94;;;20.85;70.60
14269;BME280;7218;51.480;7.006;2023-07-09T01:21:33;100240.66;;;20.86;70.79
14269;BME280;7218;51.480;7.006;2023-07-09T01:24:11;100239.88;;;20.70;73.17
14269;BME280;7218;51.480;7.006;2023-07-09T01:26:39;100241.47;;;20.58;73.28
14269;BME280;7218;51.480;7.006;2023-07-09T01:29:06;100240.47;;;20.60;72.88
14269;BME280;7218;51.480;7.006;2023-07-09T01:31:32;100234.59;;;20.55;72.95
14269;BME280;7218;51.480;7.006;2023-07-09T01:34:00;100237.97;;;20.43;73.44
14269;BME280;7218;51.480;7.006;2023-07-09T01:36:26;100236.25;;;20.42;72.90
14269;BME280;7218;51.480;7.006;2023-07-09T01:38:56;100236.97;;;20.30;74.24
14269;BME280;7218;51.480;7.006;2023-07-09T01:41:49;100245.34;;;20.38;74.46
14269;BME280;7218;51.480;7.006;2023-07-09T01:49:05;100243.22;;;20.29;76.11
14269;BME280;7218;51.480;7.006;2023-07-09T05:17:54;100300.97;;;19.93;89.76
14269;BME280;7218;51.480;7.006;2023-07-09T05:20:21;100304.91;;;20.01;89.27
14269;BME280;7218;51.480;7.006;2023-07-09T05:22:48;100299.00;;;20.12;89.62
14269;BME280;7218;51.480;7.006;2023-07-09T05:25:14;100304.47;;;20.23;89.32
14269;BME280;7218;51.480;7.006;2023-07-09T05:27:41;100304.81;;;20.33;89.46
14269;BME280;7218;51.480;7.006;2023-07-09T05:30:08;100300.69;;;20.43;88.64
14269;BME280;7218;51.480;7.006;2023-07-09T05:32:36;100304.78;;;20.48;88.88
14269;BME280;7218;51.480;7.006;2023-07-09T05:35:05;100303.75;;;20.51;88.48
14269;BME280;7218;51.480;7.006;2023-07-09T05:37:32;100312.56;;;20.51;88.81
14269;BME280;7218;51.480;7.006;2023-07-09T05:39:59;100307.91;;;20.55;88.71
14269;BME280;7218;51.480;7.006;2023-07-09T05:42:25;100307.06;;;20.69;87.72
14269;BME280;7218;51.480;7.006;2023-07-09T05:44:51;100312.88;;;20.75;87.00
14269;BME280;7218;51.480;7.006;2023-07-09T05:47:18;100310.78;;;20.80;87.27
14269;BME280;7218;51.480;7.006;2023-07-09T05:49:45;100304.84;;;20.91;85.98
14269;BME280;7218;51.480;7.006;2023-07-09T05:52:16;100305.69;;;21.05;85.69
14269;BME280;7218;51.480;7.006;2023-07-09T05:54:42;100304.94;;;21.18;85.84
14269;BME280;7218;51.480;7.006;2023-07-09T05:57:09;100305.22;;;21.27;84.96
14269;BME280;7218;51.480;7.006;2023-07-09T05:59:36;100304.09;;;21.31;84.09
14269;BME280;7218;51.480;7.006;2023-07-09T06:02:03;100311.47;;;21.40;83.92
14269;BME280;7218;51.480;7.006;2023-07-09T06:04:33;100314.47;;;21.48;84.67
14269;BME280;7218;51.480;7.006;2023-07-09T06:07:01;100301.97;;;21.51;85.03
14269;BME280;7218;51.480;7.006;2023-07-09T06:09:30;100310.50;;;21.56;84.17
14269;BME280;7218;51.480;7.006;2023-07-09T06:11:57;100313.88;;;21.58;84.60
14269;BME280;7218;51.480;7.006;2023-07-09T06:14:24;100309.25;;;21.61;83.84
14269;BME280;7218;51.480;7.006;2023-07-09T06:16:50;100313.09;;;21.70;83.68
14269;BME280;7218;51.480;7.006;2023-07-09T06:19:17;100317.25;;;21.74;82.94
14269;BME280;7218;51.480;7.006;2023-07-09T06:21:43;100315.72;;;21.84;83.17
14269;BME280;7218;51.480;7.006;2023-07-09T06:24:10;100308.78;;;21.96;81.86
14269;BME280;7218;51.480;7.006;2023-07-09T06:26:38;100315.75;;;22.11;81.00
14269;BME280;7218;51.480;7.006;2023-07-09T06:29:05;100315.22;;;22.18;80.01
14269;BME280;7218;51.480;7.006;2023-07-09T06:31:32;100311.38;;;22.22;79.23
14269;BME280;7218;51.480;7.006;2023-07-09T06:33:58;100315.91;;;22.35;78.52
14269;BME280;7218;51.480;7.006;2023-07-09T06:36:25;100313.78;;;22.40;77.92
14269;BME280;7218;51.480;7.006;2023-07-09T06:38:51;100314.09;;;22.48;77.14
14269;BME280;7218;51.480;7.006;2023-07-09T06:41:18;100313.47;;;22.57;73.41
14269;BME280;7218;51.480;7.006;2023-07-09T06:43:46;100319.13;;;22.65;73.44
14269;BME280;7218;51.480;7.006;2023-07-09T06:46:14;100322.75;;;22.64;69.55
14269;BME280;7218;51.480;7.006;2023-07-09T06:48:40;100322.56;;;22.80;69.52
14269;BME280;7218;51.480;7.006;2023-07-09T06:51:07;100326.19;;;22.91;69.07
14269;BME280;7218;51.480;7.006;2023-07-09T06:53:33;100320.88;;;23.04;68.69
14269;BME280;7218;51.480;7.006;2023-07-09T06:56:02;100328.81;;;23.16;68.53
14269;BME280;7218;51.480;7.006;2023-07-09T06:58:30;100325.53;;;23.26;67.27
14269;BME280;7218;51.480;7.006;2023-07-09T07:01:00;100325.59;;;23.37;66.26
14269;BME280;7218;51.480;7.006;2023-07-09T07:03:29;100334.00;;;23.43;66.13
14269;BME280;7218;51.480;7.006;2023-07-09T07:05:55;100325.28;;;23.54;65.45
14269;BME280;7218;51.480;7.006;2023-07-09T07:08:24;100322.91;;;23.62;66.15
14269;BME280;7218;51.480;7.006;2023-07-09T07:10:54;100317.38;;;23.65;67.15
14269;BME280;7218;51.480;7.006;2023-07-09T07:13:26;100322.34;;;23.70;66.80
14269;BME280;7218;51.480;7.006;2023-07-09T07:15:53;100322.53;;;23.79;66.88
14269;BME280;7218;51.480;7.006;2023-07-09T07:18:21;100318.75;;;23.94;66.39
14269;BME280;7218;51.480;7.006;2023-07-09T07:20:49;100314.09;;;23.85;65.13
14269;BME280;7218;51.480;7.006;2023-07-09T07:23:15;100319.13;;;24.01;65.21
14269;BME280;7218;51.480;7.006;2023-07-09T07:25:42;100312.03;;;24.13;67.41
14269;BME280;7218;51.480;7.006;2023-07-09T07:28:08;100319.91;;;24.14;65.10
14269;BME280;7218;51.480;7.006;2023-07-09T07:30:35;100311.38;;;24.22;67.38
14269;BME280;7218;51.480;7.006;2023-07-09T07:33:01;100312.50;;;24.30;66.46
14269;BME280;7218;51.480;7.006;2023-07-09T07:35:29;100310.84;;;24.40;65.02
14269;BME280;7218;51.480;7.006;2023-07-09T07:37:56;100311.72;;;24.52;65.02
14269;BME280;7218;51.480;7.006;2023-07-09T07:40:22;100314.25;;;24.54;66.63
14269;BME280;7218;51.480;7.006;2023-07-09T07:42:51;100304.94;;;24.59;66.00
14269;BME280;7218;51.480;7.006;2023-07-09T07:45:20;100307.25;;;24.64;63.10
14269;BME280;7218;51.480;7.006;2023-07-09T07:47:50;100314.16;;;24.66;60.95
14269;BME280;7218;51.480;7.006;2023-07-09T07:50:17;100314.78;;;24.81;60.85
14269;BME280;7218;51.480;7.006;2023-07-09T07:52:45;100311.09;;;24.95;61.75
14269;BME280;7218;51.480;7.006;2023-07-09T07:55:11;100311.22;;;25.04;61.11
14269;BME280;7218;51.480;7.006;2023-07-09T07:57:38;100316.41;;;25.17;62.16
14269;BME280;7218;51.480;7.006;2023-07-09T08:00:06;100307.19;;;25.21;61.10
14269;BME280;7218;51.480;7.006;2023-07-09T08:02:33;100311.09;;;25.39;60.99
14269;BME280;7218;51.480;7.006;2023-07-09T08:05:00;100305.84;;;25.38;61.50
14269;BME280;7218;51.480;7.006;2023-07-09T08:07:26;100306.81;;;25.48;61.80
14269;BME280;7218;51.480;7.006;2023-07-09T08:09:54;100296.75;;;25.62;62.09
14269;BME280;7218;51.480;7.006;2023-07-09T08:12:20;100304.25;;;25.68;62.92
14269;BME280;7218;51.480;7.006;2023-07-09T08:14:47;100300.34;;;25.84;59.75
14269;BME280;7218;51.480;7.006;2023-07-09T08:17:13;100299.84;;;25.90;57.57
14269;BME280;7218;51.480;7.006;2023-07-09T08:19:47;100307.94;;;25.99;54.77
14269;BME280;7218;51.480;7.006;2023-07-09T08:22:15;100303.44;;;26.00;55.35
14269;BME280;7218;51.480;7.006;2023-07-09T08:24:48;100303.72;;;26.18;54.32
14269;BME280;7218;51.480;7.006;2023-07-09T08:27:24;100304.22;;;26.23;54.26
14269;BME280;7218;51.480;7.006;2023-07-09T08:29:52;100306.22;;;26.30;54.37
14269;BME280;7218;51.480;7.006;2023-07-09T08:32:21;100301.63;;;26.32;54.09
14269;BME280;7218;51.480;7.006;2023-07-09T08:34:51;100299.75;;;26.44;52.40
14269;BME280;7218;51.480;7.006;2023-07-09T08:37:17;100294.84;;;26.49;56.46
14269;BME280;7218;51.480;7.006;2023-07-09T08:39:44;100303.31;;;26.33;54.86
14269;BME280;7218;51.480;7.006;2023-07-09T08:42:11;100295.59;;;26.61;52.60
14269;BME280;7218;51.480;7.006;2023-07-09T08:45:07;100291.91;;;26.93;51.25
14269;BME280;7218;51.480;7.006;2023-07-09T08:47:49;100286.75;;;27.11;50.84
14269;BME280;7218;51.480;7.006;2023-07-09T08:50:19;100289.25;;;27.03;54.34
14269;BME280;7218;51.480;7.006;2023-07-09T08:52:57;100284.09;;;27.21;50.10
14269;BME280;7218;51.480;7.006;2023-07-09T08:55:27;100286.69;;;27.32;50.71
14269;BME280;7218;51.480;7.006;2023-07-09T08:57:57;100278.88;;;27.50;51.00
14269;BME280;7218;51.480;7.006;2023-07-09T09:00:31;100283.53;;;27.57;51.83
14269;BME280;7218;51.480;7.006;2023-07-09T09:03:16;100278.91;;;27.69;49.83
14269;BME280;7218;51.480;7.006;2023-07-09T09:05:49;100275.69;;;27.85;49.84
14269;BME280;7218;51.480;7.006;2023-07-09T09:08:29;100281.06;;;28.04;49.93
14269;BME280;7218;51.480;7.006;2023-07-09T09:11:07;100269.31;;;28.05;48.44
14269;BME280;7218;51.480;7.006;2023-07-09T09:13:37;100269.66;;;28.11;48.16
14269;BME280;7218;51.480;7.006;2023-07-09T09:16:14;100276.38;;;28.35;48.25
14269;BME280;7218;51.480;7.006;2023-07-09T09:18:44;100269.59;;;28.40;46.20
14269;BME280;7218;51.480;7.006;2023-07-09T09:21:16;100270.00;;;28.55;47.39
14269;BME280;7218;51.480;7.006;2023-07-09T09:23:50;100269.84;;;28.76;45.68
14269;BME280;7218;51.480;7.006;2023-07-09T09:26:34;100272.31;;;28.96;46.17
14269;BME280;7218;51.480;7.006;2023-07-09T09:29:10;100269.13;;;29.10;44.70
14269;BME280;7218;51.480;7.006;2023-07-09T09:31:40;100269.31;;;28.99;46.08
14269;BME280;7218;51.480;7.006;2023-07-09T09:34:17;100272.41;;;29.14;44.53
14269;BME280;7218;51.480;7.006;2023-07-09T09:36:44;100262.44;;;29.34;44.33
14269;BME280;7218;51.480;7.006;2023-07-09T09:39:10;100266.06;;;29.60;43.04
14269;BME280;7218;51.480;7.006;2023-07-09T09:41:38;100265.53;;;29.74;41.81
14269;BME280;7218;51.480;7.006;2023-07-09T09:44:05;100268.13;;;29.93;41.15
14269;BME280;7218;51.480;7.006;2023-07-09T09:46:32;100268.94;;;30.12;41.23
14269;BME280;7218;51.480;7.006;2023-07-09T09:49:03;100261.81;;;30.03;42.82
14269;BME280;7218;51.480;7.006;2023-07-09T09:51:33;100263.16;;;30.42;41.91
14269;BME280;7218;51.480;7.006;2023-07-09T09:54:02;100265.44;;;30.81;41.33
14269;BME280;7218;51.480;7.006;2023-07-09T09:56:34;100264.47;;;30.90;40.45
14269;BME280;7218;51.480;7.006;2023-07-09T09:59:03;100260.41;;;30.86;38.65
14269;BME280;7218;51.480;7.006;2023-07-09T10:01:33;100268.22;;;30.97;37.92
14269;BME280;7218;51.480;7.006;2023-07-09T10:04:01;100269.59;;;31.01;39.60
14269;BME280;7218;51.480;7.006;2023-07-09T10:06:36;100264.59;;;31.14;38.13
14269;BME280;7218;51.480;7.006;2023-07-09T10:09:12;100265.47;;;31.14;34.27
14269;BME280;7218;51.480;7.006;2023-07-09T10:11:46;100261.78;;;31.74;34.54
14269;BME280;7218;51.480;7.006;2023-07-09T10:14:24;100264.19;;;32.01;34.54
14269;BME280;7218;51.480;7.006;2023-07-09T10:16:59;100254.97;;;32.12;34.36
14269;BME280;7218;51.480;7.006;2023-07-09T10:19:34;100254.09;;;32.19;35.58
14269;BME280;7218;51.480;7.006;2023-07-09T10:22:05;100248.31;;;32.55;33.50
14269;BME280;7218;51.480;7.006;2023-07-09T10:24:40;100253.09;;;32.20;31.80
14269;BME280;7218;51.480;7.006;2023-07-09T10:27:13;100247.13;;;32.73;31.53
14269;BME280;7218;51.480;7.006;2023-07-09T10:29:52;100244.44;;;32.81;32.39
14269;BME280;7218;51.480;7.006;2023-07-09T10:32:29;100235.66;;;32.55;31.75
14269;BME280;7218;51.480;7.006;2023-07-09T10:35:04;100235.56;;;32.16;31.27
14269;BME280;7218;51.480;7.006;2023-07-09T10:37:54;100239.88;;;32.74;30.92
14269;BME280;7218;51.480;7.006;2023-07-09T10:40:28;100233.63;;;32.81;32.65
14269;BME280;7218;51.480;7.006;2023-07-09T10:42:58;100232.97;;;32.71;31.26
14269;BME280;7218;51.480;7.006;2023-07-09T10:45:29;100222.59;;;32.91;31.88
14269;BME280;7218;51.480;7.006;2023-07-09T10:47:59;100231.25;;;33.25;30.53
14269;BME280;7218;51.480;7.006;2023-07-09T10:50:29;100237.91;;;33.46;30.42
14269;BME280;7218;51.480;7.006;2023-07-09T10:53:01;100236.59;;;33.64;30.36
14269;BME280;7218;51.480;7.006;2023-07-09T10:55:33;100236.53;;;33.50;30.19
14269;BME280;7218;51.480;7.006;2023-07-09T10:58:14;100233.16;;;33.48;30.15
14269;BME280;7218;51.480;7.006;2023-07-09T11:00:45;100241.94;;;33.50;29.96
14269;BME280;7218;51.480;7.006;2023-07-09T11:03:15;100247.09;;;32.89;28.93
14269;BME280;7218;51.480;7.006;2023-07-09T11:05:44;100248.69;;;33.15;29.75
14269;BME280;7218;51.480;7.006;2023-07-09T11:08:14;100237.25;;;33.97;30.14
14269;BME280;7218;51.480;7.006;2023-07-09T11:10:46;100235.81;;;34.47;29.15
14269;BME280;7218;51.480;7.006;2023-07-09T11:13:20;100236.22;;;34.73;29.75
14269;BME280;7218;51.480;7.006;2023-07-09T11:15:51;100229.34;;;34.48;28.01
14269;BME280;7218;51.480;7.006;2023-07-09T11:18:23;100230.75;;;34.44;28.10
14269;BME280;7218;51.480;7.006;2023-07-09T11:20:58;100213.81;;;33.59;28.27
14269;BME280;7218;51.480;7.006;2023-07-09T11:23:37;100206.84;;;34.47;28.16
14269;BME280;7218;51.480;7.006;2023-07-09T11:26:12;100215.75;;;34.56;29.00
14269;BME280;7218;51.480;7.006;2023-07-09T11:28:41;100202.09;;;34.64;29.59
14269;BME280;7218;51.480;7.006;2023-07-09T11:31:17;100204.94;;;34.19;27.08
14269;BME280;7218;51.480;7.006;2023-07-09T11:33:48;100204.97;;;34.48;27.25
14269;BME280;7218;51.480;7.006;2023-07-09T11:36:24;100195.78;;;34.20;27.13
14269;BME280;7218;51.480;7.006;2023-07-09T11:38:53;100194.53;;;34.89;27.28
14269;BME280;7218;51.480;7.006;2023-07-09T11:41:27;100195.06;;;35.14;27.63
14269;BME280;7218;51.480;7.006;2023-07-09T11:44:03;100178.78;;;35.28;26.61
14269;BME280;7218;51.480;7.006;2023-07-09T11:46:31;100181.69;;;35.84;26.10
14269;BME280;7218;51.480;7.006;2023-07-09T11:48:59;100183.66;;;35.54;26.19
14269;BME280;7218;51.480;7.006;2023-07-09T11:51:36;100190.78;;;35.55;25.54
14269;BME280;7218;51.480;7.006;2023-07-09T11:54:11;100182.22;;;35.58;25.88
14269;BME280;7218;51.480;7.006;2023-07-09T11:56:38;100178.47;;;35.74;25.06
14269;BME280;7218;51.480;7.006;2023-07-09T11:59:04;100175.84;;;35.87;25.74
14269;BME280;7218;51.480;7.006;2023-07-09T12:01:34;100186.59;;;35.95;24.71
14269;BME280;7218;51.480;7.006;2023-07-09T12:04:04;100181.97;;;36.17;24.74
14269;BME280;7218;51.480;7.006;2023-07-09T12:06:33;100185.22;;;36.06;25.44
14269;BME280;7218;51.480;7.006;2023-07-09T12:09:00;100185.88;;;36.36;25.75
14269;BME280;7218;51.480;7.006;2023-07-09T12:11:31;100184.44;;;35.48;25.49
14269;BME280;7218;51.480;7.006;2023-07-09T12:14:02;100178.59;;;35.66;25.51
14269;BME280;7218;51.480;7.006;2023-07-09T12:16:31;100181.13;;;35.31;24.43
14269;BME280;7218;51.480;7.006;2023-07-09T12:18:57;100188.75;;;35.07;24.97
14269;BME280;7218;51.480;7.006;2023-07-09T12:21:25;100181.84;;;35.40;24.78
14269;BME280;7218;51.480;7.006;2023-07-09T12:23:52;100189.19;;;35.10;24.84
14269;BME280;7218;51.480;7.006;2023-07-09T12:26:20;100174.63;;;35.11;24.78
14269;BME280;7218;51.480;7.006;2023-07-09T12:28:52;100192.59;;;34.83;25.40
14269;BME280;7218;51.480;7.006;2023-07-09T12:31:24;100185.38;;;35.05;25.42
14269;BME280;7218;51.480;7.006;2023-07-09T12:33:53;100183.91;;;35.59;24.70
14269;BME280;7218;51.480;7.006;2023-07-09T12:36:20;100179.69;;;35.71;24.63
14269;BME280;7218;51.480;7.006;2023-07-09T12:38:49;100177.94;;;35.85;24.75
14269;BME280;7218;51.480;7.006;2023-07-09T12:41:20;100167.41;;;35.75;24.86
14269;BME280;7218;51.480;7.006;2023-07-09T12:43:48;100171.72;;;36.47;25.64
14269;BME280;7218;51.480;7.006;2023-07-09T12:46:16;100168.75;;;36.35;23.69
14269;BME280;7218;51.480;7.006;2023-07-09T12:48:45;100166.06;;;36.70;22.63
14269;BME280;7218;51.480;7.006;2023-07-09T12:51:16;100159.47;;;36.98;23.97
14269;BME280;7218;51.480;7.006;2023-07-09T12:53:44;100161.72;;;37.42;25.59
14269;BME280;7218;51.480;7.006;2023-07-09T12:56:12;100162.25;;;36.64;24.65
14269;BME280;7218;51.480;7.006;2023-07-09T12:58:39;100157.16;;;36.89;24.87
14269;BME280;7218;51.480;7.006;2023-07-09T13:01:08;100164.41;;;36.41;24.87
14269;BME280;7218;51.480;7.006;2023-07-09T13:03:40;100159.00;;;36.47;24.62
14269;BME280;7218;51.480;7.006;2023-07-09T13:06:26;100151.72;;;35.99;25.44
14269;BME280;7218;51.480;7.006;2023-07-09T13:08:56;100152.22;;;35.60;25.17
14269;BME280;7218;51.480;7.006;2023-07-09T13:11:23;100152.59;;;35.57;25.08
14269;BME280;7218;51.480;7.006;2023-07-09T13:13:54;100142.53;;;35.15;25.78
14269;BME280;7218;51.480;7.006;2023-07-09T13:16:21;100141.16;;;35.40;27.24
14269;BME280;7218;51.480;7.006;2023-07-09T13:18:48;100131.97;;;35.20;26.72
14269;BME280;7218;51.480;7.006;2023-07-09T13:21:17;100137.94;;;34.79;26.94
14269;BME280;7218;51.480;7.006;2023-07-09T13:23:43;100129.63;;;34.37;27.32
14269;BME280;7218;51.480;7.006;2023-07-09T13:26:11;100135.53;;;34.03;29.21
14269;BME280;7218;51.480;7.006;2023-07-09T13:28:38;100125.56;;;33.58;28.86
14269;BME280;7218;51.480;7.006;2023-07-09T13:31:09;100115.56;;;33.44;31.13
14269;BME280;7218;51.480;7.006;2023-07-09T13:33:37;100101.88;;;32.92;29.70
14269;BME280;7218;51.480;7.006;2023-07-09T13:36:05;100095.16;;;32.79;30.74
14269;BME280;7218;51.480;7.006;2023-07-09T13:38:34;100090.72;;;32.56;30.34
14269;BME280;7218;51.480;7.006;2023-07-09T13:41:10;100098.25;;;32.21;31.88
14269;BME280;7218;51.480;7.006;2023-07-09T13:43:44;100094.88;;;32.19;36.29
14269;BME280;7218;51.480;7.006;2023-07-09T13:46:10;100095.59;;;31.81;33.40
14269;BME280;7218;51.480;7.006;2023-07-09T13:48:38;100087.38;;;31.58;32.66
14269;BME280;7218;51.480;7.006;2023-07-09T13:51:14;100091.88;;;31.33;33.28
14269;BME280;7218;51.480;7.006;2023-07-09T13:53:42;100087.78;;;31.05;32.41
14269;BME280;7218;51.480;7.006;2023-07-09T13:56:08;100087.75;;;30.97;32.80
14269;BME280;7218;51.480;7.006;2023-07-09T13:58:35;100080.97;;;30.85;32.63
14269;BME280;7218;51.480;7.006;2023-07-09T14:01:10;100072.19;;;30.74;35.53
14269;BME280;7218;51.480;7.006;2023-07-09T14:03:37;100066.63;;;30.34;38.53
14269;BME280;7218;51.480;7.006;2023-07-09T14:06:04;100072.81;;;30.52;37.38
14269;BME280;7218;51.480;7.006;2023-07-09T14:08:32;100083.50;;;30.44;38.99
14269;BME280;7218;51.480;7.006;2023-07-09T14:10:58;100091.16;;;30.23;42.43
14269;BME280;7218;51.480;7.006;2023-07-09T14:13:25;100081.16;;;29.64;47.30
14269;BME280;7218;51.480;7.006;2023-07-09T14:15:51;100070.34;;;29.02;48.86
14269;BME280;7218;51.480;7.006;2023-07-09T14:18:20;100071.94;;;28.41;49.17
14269;BME280;7218;51.480;7.006;2023-07-09T14:20:47;100100.38;;;27.68;52.73
14269;BME280;7218;51.480;7.006;2023-07-09T14:23:15;100126.38;;;26.59;62.30
14269;BME280;7218;51.480;7.006;2023-07-09T14:25:44;100144.59;;;25.40;67.48
14269;BME280;7218;51.480;7.006;2023-07-09T14:28:13;100189.00;;;22.76;74.37
14269;BME280;7218;51.480;7.006;2023-07-09T14:30:40;100171.94;;;21.90;84.68
14269;BME280;7218;51.480;7.006;2023-07-09T14:33:12;100189.19;;;21.31;86.60
14269;BME280;7218;51.480;7.006;2023-07-09T14:35:38;100196.31;;;20.17;93.61
14269;BME280;7218;51.480;7.006;2023-07-09T14:38:14;100225.16;;;19.92;97.73
14269;BME280;7218;51.480;7.006;2023-07-09T14:40:43;100249.63;;;19.34;100.00
14269;BME280;7218;51.480;7.006;2023-07-09T14:43:10;100189.13;;;19.59;100.00
14269;BME280;7218;51.480;7.006;2023-07-09T14:45:37;100284.75;;;19.20;100.00
14269;BME280;7218;51.480;7.006;2023-07-09T14:54:48;100238.75;;;20.59;100.00
14269;BME280;7218;51.480;7.006;2023-07-09T14:57:20;100226.63;;;20.55;100.00
14269;BME280;7218;51.480;7.006;2023-07-09T14:59:47;100243.75;;;21.07;100.00
14269;BME280;7218;51.480;7.006;2023-07-09T15:02:22;100240.94;;;21.51;100.00
14269;BME280;7218;51.480;7.006;2023-07-09T15:04:49;100234.34;;;21.29;100.00
14269;BME280;7218;51.480;7.006;2023-07-09T15:07:16;100298.75;;;20.89;100.00
14269;BME280;7218;51.480;7.006;2023-07-09T15:09:42;100400.19;;;19.70;100.00
14269;BME280;7218;51.480;7.006;2023-07-09T15:12:15;100418.13;;;19.96;100.00
14269;BME280;7218;51.480;7.006;2023-07-09T15:14:44;100446.31;;;20.44;100.00
14269;BME280;7218;51.480;7.006;2023-07-09T15:17:11;100464.97;;;19.78;100.00
14269;BME280;7218;51.480;7.006;2023-07-09T15:19:37;100488.75;;;19.47;100.00
14269;BME280;7218;51.480;7.006;2023-07-09T15:22:05;100501.59;;;19.70;100.00
14269;BME280;7218;51.480;7.006;2023-07-09T15:24:32;100501.63;;;20.17;100.00
14269;BME280;7218;51.480;7.006;2023-07-09T15:27:01;100525.53;;;20.33;100.00
14269;BME280;7218;51.480;7.006;2023-07-09T15:29:30;100526.03;;;20.55;100.00
14269;BME280;7218;51.480;7.006;2023-07-09T15:31:59;100536.84;;;21.12;100.00
14269;BME280;7218;51.480;7.006;2023-07-09T15:34:25;100544.78;;;20.98;100.00
14269;BME280;7218;51.480;7.006;2023-07-09T15:36:52;100534.13;;;20.84;100.00
14269;BME280;7218;51.480;7.006;2023-07-09T15:39:20;100501.78;;;21.07;100.00
14269;BME280;7218;51.480;7.006;2023-07-09T15:41:47;100492.25;;;21.34;100.00
14269;BME280;7218;51.480;7.006;2023-07-09T15:44:16;100461.25;;;21.63;100.00
14269;BME280;7218;51.480;7.006;2023-07-09T15:46:49;100449.69;;;21.78;100.00
14269;BME280;7218;51.480;7.006;2023-07-09T15:49:17;100427.03;;;21.73;100.00
14269;BME280;7218;51.480;7.006;2023-07-09T15:51:44;100406.88;;;21.56;100.00
14269;BME280;7218;51.480;7.006;2023-07-09T15:54:14;100399.34;;;21.77;100.00
14269;BME280;7218;51.480;7.006;2023-07-09T15:56:42;100397.66;;;21.76;100.00
14269;BME280;7218;51.480;7.006;2023-07-09T15:59:24;100413.34;;;22.34;100.00
14269;BME280;7218;51.480;7.006;2023-07-09T16:01:51;100414.81;;;22.25;100.00
14269;BME280;7218;51.480;7.006;2023-07-09T16:04:19;100411.50;;;22.22;100.00
14269;BME280;7218;51.480;7.006;2023-07-09T16:06:46;100418.81;;;22.18;100.00
14269;BME280;7218;51.480;7.006;2023-07-09T16:09:12;100432.78;;;22.08;100.00
14269;BME280;7218;51.480;7.006;2023-07-09T16:11:41;100462.25;;;22.17;100.00
14269;BME280;7218;51.480;7.006;2023-07-09T16:14:17;100463.50;;;22.12;100.00
14269;BME280;7218;51.480;7.006;2023-07-09T16:16:45;100447.44;;;22.01;100.00
14269;BME280;7218;51.480;7.006;2023-07-09T16:19:16;100422.28;;;22.06;100.00
14269;BME280;7218;51.480;7.006;2023-07-09T16:21:44;100413.88;;;22.26;100.00
14269;BME280;7218;51.480;7.006;2023-07-09T16:24:21;100401.72;;;22.22;100.00
14269;BME280;7218;51.480;7.006;2023-07-09T16:26:48;100392.31;;;21.90;100.00
14269;BME280;7218;51.480;7.006;2023-07-09T16:29:19;100373.88;;;22.15;100.00
14269;BME280;7218;51.480;7.006;2023-07-09T16:31:47;100358.66;;;22.44;100.00
14269;BME280;7218;51.480;7.006;2023-07-09T16:34:14;100355.34;;;22.80;100.00
14269;BME280;7218;51.480;7.006;2023-07-09T16:36:41;100349.38;;;22.89;100.00
14269;BME280;7218;51.480;7.006;2023-07-09T16:39:23;100347.03;;;23.10;100.00
14269;BME280;7218;51.480;7.006;2023-07-09T16:41:50;100349.50;;;22.48;100.00
14269;BME280;7218;51.480;7.006;2023-07-09T16:44:17;100341.16;;;22.27;100.00
14269;BME280;7218;51.480;7.006;2023-07-09T16:46:44;100329.19;;;21.81;100.00
14269;BME280;7218;51.480;7.006;2023-07-09T16:49:25;100309.31;;;22.40;100.00